sensor_id;sensor_type;location;lat;lon;timestamp;P1;durP1;ratioP1;P2;durP2;ratioP2
46026;SDS011;31760;45.416;10.072;2023-02-28T21:45:21;20.27;;;12.95;;
46026;SDS011;31760;45.416;10.072;2023-02-28T21:46:05;18.95;;;12.50;;
46026;SDS011;31760;45.416;10.072;2023-02-28T21:46:49;18.30;;;12.90;;
46026;SDS011;31760;45.416;10.072;2023-02-28T21:47:33;18.35;;;12.05;;
46026;SDS011;31760;45.416;10.072;2023-02-28T21:48:15;16.95;;;11.50;;
46026;SDS011;31760;45.416;10.072;2023-02-28T21:48:57;17.80;;;11.68;;
46026;SDS011;31760;45.416;10.072;2023-02-28T21:49:40;18.80;;;11.38;;
46026;SDS011;31760;45.416;10.072;2023-02-28T21:50:22;18.98;;;10.93;;
46026;SDS011;31760;45.416;10.072;2023-02-28T21:51:10;19.63;;;11.43;;
46026;SDS011;31760;45.416;10.072;2023-02-28T21:51:53;17.25;;;10.48;;
46026;SDS011;31760;45.416;10.072;2023-02-28T21:52:36;17.00;;;10.15;;
46026;SDS011;31760;45.416;10.072;2023-02-28T22:03:17;10.40;;;6.20;;
46026;SDS011;31760;45.416;10.072;2023-02-28T22:13:19;5.88;;;4.55;;
46026;SDS011;31760;45.416;10.072;2023-02-28T22:23:21;6.70;;;4.18;;
46026;SDS011;31760;45.416;10.072;2023-02-28T22:33:23;6.18;;;3.90;;
46026;SDS011;31760;45.416;10.072;2023-02-28T22:36:21;7.10;;;4.68;;
46026;SDS011;31760;45.416;10.072;2023-02-28T22:37:24;11.88;;;4.40;;
46026;SDS011;31760;45.416;10.072;2023-02-28T22:38:26;7.28;;;4.15;;
46026;SDS011;31760;45.416;10.072;2023-02-28T23:01:12;17.02;;;13.50;;
46026;SDS011;31760;45.416;10.072;2023-02-28T23:02:15;26.10;;;23.30;;
46026;SDS011;31760;45.416;10.072;2023-02-28T23:03:17;22.00;;;19.60;;
46026;SDS011;31760;45.416;10.072;2023-02-28T23:04:20;27.15;;;23.25;;
46026;SDS011;31760;45.416;10.072;2023-02-28T23:05:23;41.05;;;33.75;;
46026;SDS011;31760;45.416;10.072;2023-02-28T23:06:26;62.40;;;49.47;;
46026;SDS011;31760;45.416;10.072;2023-02-28T23:07:31;67.15;;;54.72;;
46026;SDS011;31760;45.416;10.072;2023-02-28T23:08:33;68.57;;;53.97;;
46026;SDS011;31760;45.416;10.072;2023-02-28T23:09:36;65.65;;;55.50;;
46026;SDS011;31760;45.416;10.072;2023-02-28T23:10:41;64.60;;;52.30;;
46026;SDS011;31760;45.416;10.072;2023-02-28T23:11:45;66.85;;;54.88;;
46026;SDS011;31760;45.416;10.072;2023-02-28T23:12:49;70.18;;;57.47;;
46026;SDS011;31760;45.416;10.072;2023-02-28T23:13:51;69.60;;;56.63;;
46026;SDS011;31760;45.416;10.072;2023-02-28T23:14:53;67.30;;;56.00;;
46026;SDS011;31760;45.416;10.072;2023-02-28T23:15:56;59.65;;;52.30;;
46026;SDS011;31760;45.416;10.072;2023-02-28T23:16:58;67.28;;;55.80;;
46026;SDS011;31760;45.416;10.072;2023-02-28T23:18:00;62.78;;;52.22;;
46026;SDS011;31760;45.416;10.072;2023-02-28T23:19:07;61.15;;;52.13;;
46026;SDS011;31760;45.416;10.072;2023-02-28T23:20:16;54.95;;;48.95;;
46026;SDS011;31760;45.416;10.072;2023-02-28T23:21:19;58.08;;;48.42;;
46026;SDS011;31760;45.416;10.072;2023-02-28T23:22:22;51.17;;;43.40;;
46026;SDS011;31760;45.416;10.072;2023-02-28T23:23:24;51.90;;;43.15;;
46026;SDS011;31760;45.416;10.072;2023-02-28T23:28:34;34.13;;;30.25;;
46026;SDS011;31760;45.416;10.072;2023-02-28T23:33:36;25.45;;;21.75;;
46026;SDS011;31760;45.416;10.072;2023-02-28T23:38:39;19.92;;;17.30;;
46026;SDS011;31760;45.416;10.072;2023-02-28T23:43:43;14.77;;;13.10;;
46026;SDS011;31760;45.416;10.072;2023-02-28T23:48:45;12.38;;;11.00;;
46026;SDS011;31760;45.416;10.072;2023-02-28T23:53:48;9.18;;;8.27;;
46026;SDS011;31760;45.416;10.072;2023-02-28T23:58:53;7.45;;;6.75;;
